createdAt,value
2018-01-21T00:02:18.524Z,18.00
2018-01-21T00:04:46.081Z,16.70
2018-01-21T00:07:13.678Z,18.37
2018-01-21T00:09:41.274Z,16.77
2018-01-21T00:12:08.878Z,17.73
2018-01-21T00:14:37.976Z,20.13
2018-01-21T00:17:05.538Z,19.13
2018-01-21T00:19:33.092Z,20.80
2018-01-21T00:22:01.458Z,18.20
2018-01-21T00:24:29.788Z,20.13
2018-01-21T00:26:57.382Z,17.73
2018-01-21T00:29:24.940Z,18.70
2018-01-21T00:31:52.528Z,16.13
2018-01-21T00:34:20.852Z,15.67
2018-01-21T00:36:48.458Z,14.17
2018-01-21T00:39:16.023Z,13.97
2018-01-21T00:41:43.585Z,13.13
2018-01-21T00:44:11.946Z,16.10
2018-01-21T00:46:39.551Z,13.87
2018-01-21T00:49:07.106Z,13.63
2018-01-21T00:51:34.662Z,12.57
2018-01-21T00:54:02.265Z,12.53
2018-01-21T00:56:29.858Z,13.93
2018-01-21T00:58:57.422Z,16.63
2018-01-21T01:01:25.019Z,16.60
2018-01-21T01:03:52.582Z,15.10
2018-01-21T01:06:20.182Z,16.20
2018-01-21T01:08:47.741Z,16.97
2018-01-21T01:11:15.422Z,18.00
2018-01-21T01:13:42.996Z,20.10
2018-01-21T01:16:11.324Z,21.73
2018-01-21T01:18:38.922Z,22.07
2018-01-21T01:21:06.481Z,25.37
2018-01-21T01:23:34.079Z,26.40
2018-01-21T01:26:01.640Z,25.43
2018-01-21T01:28:29.233Z,30.03
2018-01-21T01:30:56.789Z,28.93
2018-01-21T01:33:24.384Z,30.87
2018-01-21T01:35:52.004Z,30.47
2018-01-21T01:38:19.598Z,30.97
2018-01-21T01:40:47.161Z,31.20
2018-01-21T01:43:14.763Z,30.40
2018-01-21T01:45:42.369Z,35.23
2018-01-21T01:48:09.939Z,32.23
2018-01-21T01:50:37.540Z,33.27
2018-01-21T01:53:05.110Z,29.23
2018-01-21T01:55:32.708Z,32.77
2018-01-21T01:58:00.273Z,34.87
2018-01-21T02:00:27.880Z,32.43
2018-01-21T02:02:55.478Z,39.13
2018-01-21T02:05:23.051Z,35.80
2018-01-21T02:07:50.659Z,39.40
2018-01-21T02:10:18.600Z,37.47
2018-01-21T02:12:46.167Z,37.40
2018-01-21T02:15:13.760Z,40.10
2018-01-21T02:17:41.321Z,39.87
2018-01-21T02:20:08.920Z,39.03
2018-01-21T02:22:36.479Z,33.37
2018-01-21T02:25:04.036Z,30.90
2018-01-21T02:27:31.626Z,30.60
2018-01-21T02:29:59.231Z,33.60
2018-01-21T02:32:26.825Z,35.23
2018-01-21T02:34:54.383Z,33.67
2018-01-21T02:37:21.981Z,36.33
2018-01-21T02:39:49.574Z,38.63
2018-01-21T02:42:17.174Z,34.03
2018-01-21T02:44:44.735Z,33.20
2018-01-21T02:47:12.336Z,35.00
2018-01-21T02:49:39.933Z,38.70
2018-01-21T02:52:07.498Z,35.90
2018-01-21T02:54:35.104Z,34.27
2018-01-21T02:57:02.710Z,32.67
2018-01-21T02:59:30.307Z,29.60
2018-01-21T03:01:57.865Z,28.10
2018-01-21T03:04:25.482Z,26.47
2018-01-21T03:06:53.041Z,25.57
2018-01-21T03:09:20.605Z,24.10
2018-01-21T03:11:48.196Z,32.57
2018-01-21T03:14:15.811Z,30.50
2018-01-21T03:16:44.132Z,24.40
2018-01-21T03:19:11.688Z,23.13
2018-01-21T03:21:39.302Z,29.27
2018-01-21T03:24:06.864Z,27.93
2018-01-21T03:26:35.202Z,33.00
2018-01-21T03:29:02.807Z,35.57
2018-01-21T03:31:30.370Z,37.70
2018-01-21T03:33:57.983Z,36.40
2018-01-21T03:36:25.541Z,39.40
2018-01-21T03:38:53.145Z,37.87
2018-01-21T03:41:21.473Z,39.37
2018-01-21T03:43:49.081Z,36.73
2018-01-21T03:46:16.645Z,33.70
2018-01-21T03:48:44.216Z,35.37
2018-01-21T03:51:12.585Z,28.77
2018-01-21T03:53:40.921Z,29.30
2018-01-21T03:56:08.512Z,25.70
2018-01-21T03:58:36.078Z,36.67
2018-01-21T04:01:03.695Z,34.10
2018-01-21T04:03:31.263Z,37.43
2018-01-21T04:05:58.823Z,32.27
2018-01-21T04:08:26.426Z,26.70
2018-01-21T04:10:53.994Z,35.43
2018-01-21T04:13:21.597Z,35.17
2018-01-21T04:15:49.296Z,31.97
2018-01-21T04:18:16.857Z,28.03
2018-01-21T04:20:45.478Z,31.30
2018-01-21T04:23:13.072Z,26.00
2018-01-21T04:25:40.667Z,26.27
2018-01-21T04:28:08.265Z,23.97
2018-01-21T04:30:35.877Z,22.80
2018-01-21T04:33:03.440Z,22.47
2018-01-21T04:35:31.036Z,23.83
2018-01-21T04:37:58.593Z,22.07
2018-01-21T04:40:26.966Z,21.07
2018-01-21T04:42:55.293Z,24.57
2018-01-21T04:45:22.888Z,21.33
2018-01-21T04:47:50.452Z,20.53
2018-01-21T04:50:18.044Z,21.23
2018-01-21T04:52:45.640Z,19.20
2018-01-21T04:55:13.196Z,19.37
2018-01-21T04:57:40.801Z,18.50
2018-01-21T05:00:08.414Z,18.63
2018-01-21T05:02:35.977Z,18.83
2018-01-21T05:05:03.538Z,19.67
2018-01-21T05:07:31.148Z,19.47
2018-01-21T05:09:58.720Z,20.67
2018-01-21T05:14:48.092Z,19.50
2018-01-21T05:17:15.690Z,20.37
2018-01-21T05:19:43.301Z,20.10
2018-01-21T05:22:10.870Z,20.20
2018-01-21T05:24:38.440Z,19.90
2018-01-21T05:27:06.812Z,20.07
2018-01-21T05:29:34.420Z,21.63
2018-01-21T05:32:02.030Z,20.00
2018-01-21T05:34:29.649Z,20.03
2018-01-21T05:36:57.220Z,18.77
2018-01-21T05:39:24.778Z,18.73
2018-01-21T05:41:52.384Z,19.27
2018-01-21T05:44:19.949Z,17.40
2018-01-21T05:46:48.278Z,16.00
2018-01-21T05:49:15.878Z,17.17
2018-01-21T05:51:43.453Z,19.37
2018-01-21T05:54:11.062Z,18.23
2018-01-21T05:56:38.631Z,21.80
2018-01-21T05:59:06.202Z,21.63
2018-01-21T06:01:33.794Z,20.10
2018-01-21T06:04:01.369Z,21.13
2018-01-21T06:06:28.968Z,20.27
2018-01-21T06:08:56.524Z,21.03
2018-01-21T06:11:24.136Z,20.13
2018-01-21T06:13:52.460Z,19.70
2018-01-21T06:16:20.018Z,21.23
2018-01-21T06:18:47.619Z,19.87
2018-01-21T06:21:15.186Z,18.70
2018-01-21T06:23:42.777Z,18.73
2018-01-21T06:26:10.347Z,20.43
2018-01-21T06:28:37.948Z,18.53
2018-01-21T06:31:05.506Z,17.90
2018-01-21T06:33:33.117Z,17.57
2018-01-21T06:36:01.444Z,17.03
2018-01-21T06:38:29.009Z,19.53
2018-01-21T06:40:56.614Z,17.53
2018-01-21T06:43:24.177Z,16.83
2018-01-21T06:45:51.785Z,17.73
2018-01-21T06:48:19.352Z,18.57
2018-01-21T06:50:46.959Z,17.73
2018-01-21T06:53:14.537Z,19.30
2018-01-21T06:55:42.101Z,17.07
2018-01-21T06:58:09.705Z,17.50
2018-01-21T07:00:37.300Z,17.43
2018-01-21T07:03:05.673Z,16.97
2018-01-21T07:05:34.041Z,16.93
2018-01-21T07:08:01.608Z,15.17
2018-01-21T07:10:29.177Z,14.03
2018-01-21T07:12:56.791Z,13.27
2018-01-21T07:15:24.405Z,13.83
2018-01-21T07:17:52.006Z,12.87
2018-01-21T07:20:19.611Z,12.87
2018-01-21T07:22:47.184Z,14.17
2018-01-21T07:25:15.553Z,13.37
2018-01-21T07:27:43.886Z,12.83
2018-01-21T07:30:11.505Z,12.23
2018-01-21T07:32:39.063Z,12.50
2018-01-21T07:35:06.624Z,12.03
2018-01-21T07:37:35.017Z,11.53
2018-01-21T07:40:02.628Z,12.07
2018-01-21T07:42:33.057Z,11.47
2018-01-21T07:45:00.622Z,11.07
2018-01-21T07:47:28.221Z,10.73
2018-01-21T07:49:56.549Z,13.23
2018-01-21T07:52:24.154Z,15.43
2018-01-21T07:54:51.766Z,17.20
2018-01-21T07:57:19.319Z,20.03
2018-01-21T07:59:46.880Z,15.77
2018-01-21T08:02:14.486Z,14.07
2018-01-21T08:04:42.853Z,13.93
2018-01-21T08:07:10.612Z,14.33
2018-01-21T08:09:38.217Z,13.50
2018-01-21T08:12:05.808Z,13.63
2018-01-21T08:14:33.471Z,14.63
2018-01-21T08:17:01.012Z,15.30
2018-01-21T08:19:28.579Z,15.17
2018-01-21T08:21:56.188Z,15.27
2018-01-21T08:24:23.754Z,15.23
2018-01-21T08:26:52.137Z,15.57
2018-01-21T08:29:20.477Z,13.90
2018-01-21T08:31:48.036Z,15.97
2018-01-21T08:34:21.197Z,15.90
2018-01-21T08:36:54.316Z,16.43
2018-01-21T08:39:27.469Z,15.10
2018-01-21T08:44:54.690Z,15.43
2018-01-21T08:47:22.294Z,14.50
2018-01-21T08:49:49.866Z,14.30
2018-01-21T08:52:17.492Z,14.63
2018-01-21T08:54:45.071Z,14.30
2018-01-21T08:57:12.688Z,13.50
2018-01-21T08:59:40.256Z,13.87
2018-01-21T09:02:07.870Z,15.93
2018-01-21T09:04:35.440Z,20.73
2018-01-21T09:07:03.054Z,23.13
2018-01-21T09:09:30.661Z,23.57
2018-01-21T09:11:58.448Z,22.50
2018-01-21T09:14:27.509Z,24.67
2018-01-21T09:16:55.130Z,23.27
2018-01-21T09:19:23.097Z,21.87
2018-01-21T09:21:50.657Z,18.47
2018-01-21T09:24:18.363Z,19.97
2018-01-21T09:26:46.729Z,16.43
2018-01-21T09:29:18.352Z,16.27
2018-01-21T09:31:45.973Z,16.30
2018-01-21T09:34:13.592Z,16.30
2018-01-21T09:36:41.148Z,15.90
2018-01-21T09:39:08.745Z,16.53
2018-01-21T09:41:41.841Z,16.90
2018-01-21T09:44:09.558Z,19.47
2018-01-21T09:46:37.167Z,17.73
2018-01-21T09:49:04.726Z,16.37
2018-01-21T09:51:32.283Z,16.63
2018-01-21T09:54:03.068Z,15.03
2018-01-21T09:56:30.726Z,15.40
2018-01-21T09:58:58.522Z,16.30
2018-01-21T10:01:26.242Z,16.23
2018-01-21T10:03:53.887Z,16.37
2018-01-21T10:06:21.445Z,14.80
2018-01-21T10:08:48.997Z,17.07
2018-01-21T10:11:16.592Z,16.73
2018-01-21T10:13:44.150Z,15.87
2018-01-21T10:16:11.748Z,17.80
2018-01-21T10:18:39.346Z,14.90
2018-01-21T10:21:06.909Z,14.70
2018-01-21T10:23:34.531Z,15.60
2018-01-21T10:26:02.096Z,15.00
2018-01-21T10:28:29.655Z,15.60
2018-01-21T10:30:57.254Z,16.93
2018-01-21T10:33:24.857Z,14.30
2018-01-21T10:35:52.426Z,15.73
2018-01-21T10:38:19.983Z,14.73
2018-01-21T10:40:47.588Z,16.40
2018-01-21T10:43:15.154Z,14.73
2018-01-21T10:45:42.749Z,16.30
2018-01-21T10:48:10.314Z,16.33
2018-01-21T10:50:37.927Z,14.90
2018-01-21T10:53:05.529Z,16.97
2018-01-21T10:55:33.088Z,17.40
2018-01-21T10:58:06.121Z,19.30
2018-01-21T11:00:39.440Z,17.80
2018-01-21T11:03:07.002Z,21.83
2018-01-21T11:05:34.603Z,20.80
2018-01-21T11:08:02.157Z,20.60
2018-01-21T11:10:29.771Z,22.57
2018-01-21T11:12:58.133Z,23.63
2018-01-21T11:15:25.694Z,25.67
2018-01-21T11:17:53.307Z,23.77
2018-01-21T11:20:20.876Z,23.37
2018-01-21T11:22:48.473Z,24.43
2018-01-21T11:25:16.062Z,25.83
2018-01-21T11:27:43.686Z,24.30
2018-01-21T11:30:11.252Z,25.03
2018-01-21T11:32:38.817Z,26.73
2018-01-21T11:35:06.418Z,31.13
2018-01-21T11:37:33.985Z,25.70
2018-01-21T11:40:01.588Z,25.90
2018-01-21T11:45:03.022Z,25.00
2018-01-21T11:47:30.617Z,26.30
2018-01-21T11:49:58.245Z,24.43
2018-01-21T11:52:25.806Z,25.43
2018-01-21T11:54:53.369Z,24.80
2018-01-21T11:57:20.970Z,24.17
2018-01-21T11:59:48.541Z,25.37
2018-01-21T12:02:16.151Z,23.70
2018-01-21T12:04:43.705Z,21.73
2018-01-21T12:07:11.273Z,20.20
2018-01-21T12:09:38.868Z,21.03
2018-01-21T12:12:06.471Z,21.73
2018-01-21T12:14:34.029Z,19.77
2018-01-21T12:17:01.584Z,19.20
2018-01-21T12:19:29.951Z,20.33
2018-01-21T12:21:58.276Z,19.70
2018-01-21T12:24:25.872Z,20.57
2018-01-21T12:26:53.486Z,19.17
2018-01-21T12:29:21.048Z,17.90
2018-01-21T12:31:48.662Z,18.70
2018-01-21T12:34:16.226Z,19.23
2018-01-21T12:36:43.791Z,19.00
2018-01-21T12:39:11.385Z,20.80
2018-01-21T12:41:38.946Z,17.73
2018-01-21T12:44:06.549Z,20.73
2018-01-21T12:46:35.695Z,16.80
2018-01-21T12:49:03.294Z,18.37
2018-01-21T12:51:30.871Z,18.27
2018-01-21T12:53:58.433Z,17.17
2018-01-21T12:56:26.029Z,15.73
2018-01-21T12:58:53.635Z,17.33
2018-01-21T13:01:21.202Z,18.10
2018-01-21T13:03:48.757Z,15.97
2018-01-21T13:06:16.366Z,15.23
2018-01-21T13:08:43.937Z,17.07
2018-01-21T13:11:11.500Z,16.07
2018-01-21T13:13:39.224Z,17.57
2018-01-21T13:16:06.790Z,16.57
2018-01-21T13:18:36.281Z,14.87
2018-01-21T13:21:03.876Z,16.33
2018-01-21T13:23:32.544Z,17.63
2018-01-21T13:26:01.216Z,15.70
2018-01-21T13:28:29.571Z,15.57
2018-01-21T13:30:59.453Z,14.53
2018-01-21T13:33:27.861Z,15.23
2018-01-21T13:35:56.200Z,15.07
2018-01-21T13:38:23.800Z,15.07
2018-01-21T13:40:51.398Z,19.07
2018-01-21T13:43:18.967Z,17.37
2018-01-21T13:45:46.572Z,19.53
2018-01-21T13:48:14.130Z,18.27
2018-01-21T13:50:41.696Z,18.07
2018-01-21T13:53:09.300Z,17.63
2018-01-21T13:55:36.857Z,18.93
2018-01-21T13:58:04.469Z,16.93
2018-01-21T14:00:32.016Z,17.80
2018-01-21T14:03:00.674Z,19.00
2018-01-21T14:05:28.241Z,15.73
2018-01-21T14:07:55.807Z,13.70
2018-01-21T14:10:23.418Z,13.43
2018-01-21T14:12:50.982Z,13.53
2018-01-21T14:15:18.590Z,15.33
2018-01-21T14:17:46.157Z,13.37
2018-01-21T14:20:13.763Z,13.53
2018-01-21T14:22:41.320Z,13.33
2018-01-21T14:25:08.926Z,12.27
2018-01-21T14:27:36.491Z,13.40
2018-01-21T14:30:04.085Z,13.63
2018-01-21T14:32:31.682Z,12.50
2018-01-21T14:34:59.284Z,12.33
2018-01-21T14:37:26.852Z,11.90
2018-01-21T14:39:54.457Z,11.50
2018-01-21T14:42:22.024Z,12.27
2018-01-21T14:44:49.627Z,10.50
2018-01-21T14:47:17.953Z,11.93
2018-01-21T14:49:45.551Z,10.87
2018-01-21T14:52:13.111Z,11.50
2018-01-21T14:54:40.722Z,12.03
2018-01-21T14:57:08.281Z,14.27
2018-01-21T14:59:35.845Z,12.07
2018-01-21T15:02:03.436Z,12.33
2018-01-21T15:04:31.066Z,15.63
2018-01-21T15:06:58.634Z,13.83
2018-01-21T15:09:26.233Z,12.97
2018-01-21T15:11:53.791Z,13.97
2018-01-21T15:14:21.427Z,15.10
2018-01-21T15:16:49.003Z,15.57
2018-01-21T15:19:16.655Z,13.30
2018-01-21T15:21:44.221Z,13.63
2018-01-21T15:24:12.388Z,14.00
2018-01-21T15:26:40.131Z,13.37
2018-01-21T15:29:07.734Z,16.03
2018-01-21T15:31:35.287Z,15.20
2018-01-21T15:34:02.892Z,13.27
2018-01-21T15:36:31.221Z,14.50
2018-01-21T15:38:58.819Z,15.23
2018-01-21T15:41:26.387Z,14.50
2018-01-21T15:43:54.759Z,15.10
2018-01-21T15:46:23.135Z,12.77
2018-01-21T15:48:50.697Z,13.60
2018-01-21T15:51:18.303Z,13.70
2018-01-21T15:53:45.868Z,14.63
2018-01-21T15:56:13.429Z,14.17
2018-01-21T15:58:41.053Z,13.73
2018-01-21T16:01:09.377Z,15.50
2018-01-21T16:03:36.928Z,15.10
2018-01-21T16:06:04.527Z,13.63
2018-01-21T16:08:32.094Z,14.33
2018-01-21T16:10:59.707Z,16.10
2018-01-21T16:13:27.260Z,17.73
2018-01-21T16:15:54.820Z,15.57
2018-01-21T16:18:22.418Z,16.97
2018-01-21T16:20:49.989Z,18.47
2018-01-21T16:23:17.602Z,17.90
2018-01-21T16:25:45.955Z,17.67
2018-01-21T16:28:13.522Z,16.70
2018-01-21T16:30:41.159Z,17.63
2018-01-21T16:33:08.762Z,16.97
2018-01-21T16:35:36.363Z,16.73
2018-01-21T16:38:15.787Z,19.27
2018-01-21T16:40:43.385Z,19.73
2018-01-21T16:43:10.948Z,18.40
2018-01-21T16:45:38.541Z,21.33
2018-01-21T16:48:06.574Z,21.37
2018-01-21T16:50:36.934Z,22.27
2018-01-21T16:53:04.709Z,21.57
2018-01-21T16:55:32.358Z,20.97
2018-01-21T16:58:00.181Z,21.83
2018-01-21T17:00:27.813Z,21.00
2018-01-21T17:02:55.371Z,20.43
2018-01-21T17:05:22.941Z,17.93
2018-01-21T17:07:50.543Z,18.70
2018-01-21T17:10:18.165Z,17.63
2018-01-21T17:12:45.723Z,19.37
2018-01-21T17:15:15.259Z,18.63
2018-01-21T17:17:43.650Z,17.80
2018-01-21T17:20:11.246Z,19.77
2018-01-21T17:22:38.810Z,17.87
2018-01-21T17:25:06.393Z,15.67
2018-01-21T17:27:33.947Z,16.43
2018-01-21T17:30:01.549Z,16.23
2018-01-21T17:32:29.104Z,17.77
2018-01-21T17:34:56.677Z,16.67
2018-01-21T17:37:24.268Z,16.57
2018-01-21T17:39:51.934Z,22.17
2018-01-21T17:42:19.541Z,19.13
2018-01-21T17:44:47.152Z,19.13
2018-01-21T17:47:14.685Z,19.47
2018-01-21T17:49:42.292Z,17.90
2018-01-21T17:52:09.885Z,16.97
2018-01-21T17:54:37.455Z,16.47
2018-01-21T17:57:05.048Z,17.27
2018-01-21T17:59:32.608Z,15.57
2018-01-21T18:02:00.983Z,17.17
2018-01-21T18:04:29.314Z,17.37
2018-01-21T18:06:56.878Z,16.67
2018-01-21T18:09:24.486Z,17.43
2018-01-21T18:11:52.052Z,17.13
2018-01-21T18:14:20.421Z,16.73
2018-01-21T18:16:48.745Z,17.27
2018-01-21T18:19:16.349Z,17.17
2018-01-21T18:21:43.950Z,15.80
2018-01-21T18:24:11.558Z,17.83
2018-01-21T18:26:39.172Z,16.10
2018-01-21T18:29:06.787Z,19.57
2018-01-21T18:31:34.391Z,18.53
2018-01-21T18:34:01.953Z,20.10
2018-01-21T18:36:29.601Z,23.10
2018-01-21T18:38:57.189Z,19.63
2018-01-21T18:41:24.753Z,20.83
2018-01-21T18:43:52.369Z,20.13
2018-01-21T18:46:20.708Z,21.57
2018-01-21T18:48:48.560Z,21.83
2018-01-21T18:51:17.421Z,21.80
2018-01-21T18:53:47.576Z,20.77
2018-01-21T18:56:16.461Z,21.47
2018-01-21T18:58:45.455Z,20.73
2018-01-21T19:01:13.657Z,22.30
2018-01-21T19:03:41.240Z,22.73
2018-01-21T19:06:09.006Z,21.90
2018-01-21T19:08:37.336Z,25.13
2018-01-21T19:11:04.902Z,21.90
2018-01-21T19:13:32.497Z,23.57
2018-01-21T19:16:00.106Z,26.47
2018-01-21T19:18:27.677Z,25.40
2018-01-21T19:20:55.286Z,26.10
2018-01-21T19:23:22.895Z,26.70
2018-01-21T19:25:50.457Z,25.67
2018-01-21T19:28:18.023Z,28.93
2018-01-21T19:30:45.629Z,28.73
2018-01-21T19:33:13.207Z,27.53
2018-01-21T19:35:41.540Z,30.13
2018-01-21T19:38:12.150Z,31.03
2018-01-21T19:40:44.386Z,28.80
2018-01-21T19:43:13.638Z,29.63
2018-01-21T19:45:41.232Z,30.70
2018-01-21T19:48:08.812Z,34.03
2018-01-21T19:50:36.429Z,32.80
2018-01-21T19:53:03.996Z,33.50
2018-01-21T19:55:31.604Z,28.17
2018-01-21T19:57:59.216Z,29.03
2018-01-21T20:00:26.776Z,30.70
2018-01-21T20:02:54.695Z,28.97
2018-01-21T20:05:23.018Z,31.83
2018-01-21T20:07:50.582Z,31.90
2018-01-21T20:10:18.193Z,32.30
2018-01-21T20:12:47.367Z,29.30
2018-01-21T20:15:14.980Z,32.07
2018-01-21T20:17:42.576Z,32.73
2018-01-21T20:20:10.162Z,34.10
2018-01-21T20:22:37.758Z,39.23
2018-01-21T20:25:05.338Z,49.10
2018-01-21T20:27:32.937Z,33.93
2018-01-21T20:30:00.521Z,35.47
2018-01-21T20:32:28.139Z,29.43
2018-01-21T20:34:55.729Z,33.53
2018-01-21T20:37:23.348Z,32.87
2018-01-21T20:39:50.921Z,30.37
2018-01-21T20:42:18.532Z,30.13
2018-01-21T20:44:46.083Z,27.63
2018-01-21T20:47:13.685Z,31.93
2018-01-21T20:49:41.244Z,28.43
2018-01-21T20:52:14.565Z,30.47
2018-01-21T20:54:42.168Z,27.03
2018-01-21T20:57:09.797Z,31.57
2018-01-21T20:59:37.363Z,26.10
2018-01-21T21:02:04.923Z,28.97
2018-01-21T21:04:32.538Z,28.33
2018-01-21T21:07:00.106Z,29.30
2018-01-21T21:09:27.669Z,30.80
2018-01-21T21:11:55.271Z,29.07
2018-01-21T21:14:22.876Z,26.70
2018-01-21T21:16:50.470Z,27.97
2018-01-21T21:19:18.032Z,28.80
2018-01-21T21:21:45.661Z,27.33
2018-01-21T21:24:13.256Z,27.80
2018-01-21T21:26:40.860Z,28.33
2018-01-21T21:29:08.421Z,30.80
2018-01-21T21:31:36.032Z,27.43
2018-01-21T21:34:03.598Z,30.10
2018-01-21T21:36:31.921Z,29.13
2018-01-21T21:38:59.525Z,30.70
2018-01-21T21:41:27.086Z,28.77
2018-01-21T21:43:54.668Z,30.77
2018-01-21T21:46:22.269Z,32.13
2018-01-21T21:48:49.842Z,28.90
2018-01-21T21:51:17.448Z,29.77
2018-01-21T21:53:45.010Z,30.13
2018-01-21T21:56:12.619Z,31.53
2018-01-21T21:58:40.498Z,29.50
2018-01-21T22:01:08.153Z,29.20
2018-01-21T22:03:35.760Z,31.17
2018-01-21T22:06:03.360Z,30.90
2018-01-21T22:08:30.943Z,27.87
2018-01-21T22:10:58.571Z,28.13
2018-01-21T22:13:26.909Z,30.03
2018-01-21T22:15:54.515Z,29.40
2018-01-21T22:18:22.084Z,29.13
2018-01-21T22:20:49.753Z,30.10
2018-01-21T22:23:17.290Z,28.23
2018-01-21T22:25:44.897Z,30.27
2018-01-21T22:30:44.310Z,29.87
2018-01-21T22:33:11.923Z,28.90
2018-01-21T22:35:41.336Z,29.43
2018-01-21T22:38:08.944Z,28.10
2018-01-21T22:40:36.556Z,29.47
2018-01-21T22:43:04.130Z,28.43
2018-01-21T22:45:31.700Z,27.43
2018-01-21T22:47:59.310Z,31.03
2018-01-21T22:50:27.356Z,28.63
2018-01-21T22:52:54.982Z,31.20
2018-01-21T22:55:22.559Z,28.40
2018-01-21T22:57:50.132Z,29.27
2018-01-21T23:00:17.738Z,27.97
2018-01-21T23:02:46.225Z,29.00
2018-01-21T23:05:13.846Z,29.73
2018-01-21T23:07:41.421Z,28.70
2018-01-21T23:10:09.036Z,28.47
2018-01-21T23:12:36.631Z,31.37
2018-01-21T23:15:04.214Z,29.53
2018-01-21T23:17:31.822Z,31.40
2018-01-21T23:19:59.399Z,33.33
2018-01-21T23:22:27.026Z,32.90
2018-01-21T23:24:55.542Z,34.23
2018-01-21T23:27:23.223Z,35.47
2018-01-21T23:29:51.135Z,37.57
2018-01-21T23:32:19.139Z,36.37
2018-01-21T23:34:47.051Z,36.10
2018-01-21T23:37:14.671Z,39.03
2018-01-21T23:39:42.282Z,37.77
2018-01-21T23:42:09.895Z,38.80
2018-01-21T23:44:37.467Z,39.90
2018-01-21T23:47:05.074Z,42.57
2018-01-21T23:49:32.656Z,40.80
2018-01-21T23:52:00.273Z,43.27
2018-01-21T23:54:27.882Z,41.50
2018-01-21T23:56:55.452Z,42.13
2018-01-21T23:59:23.174Z,42.43
